Flagstaff, Arizona
Current Conditions -  °F | °C
As of 2:57 AM on Saturday 01 Nov 2014 (Local Time) from KFLG Reporting Station
Few Clouds Few Clouds  
Wind Chill: 52°   Ceiling: Unl
Heat Index: 52°   Visibility: 10mi
Dew Point: 41°   Wind: 20mph
Humidity: 66%   Direction: 210°SSW
Pressure: 30.03"   Gusts: 30mph
Location:  35.2°N, 111.65°W
Report Text: KFLG 010957Z AUTO 21017G26KT 10SM FEW029 11/05 A3003 RMK AO2 PK WND 21029/0941 SLP078 T01110050 TSNO
Loading
Personal Weather Stations






























Interactive Weather Map
Tropical Storm Tracking
New forecast layout! Learn more

10-Day Weather Forecast

Advertisements
Track Severe Weather on mobile